עמוד ראשי
METAR-TAF:

METAR-TAF

שדות תעופה :

Deming, ניו מקסיקו, ארצות הברית

קו רוחב: 32-15-44N, קו אורך: 107-43-14W, גובה: 1315מטר

תצפית מזג אוויר נוכחית

הדו"ח נערך לפני 1 שעות ו 12דקות, בשעה 07:53 UTC
רוח 6קשר מכיוון מערב/צפון-מערב
טמפרטורת 24 צלסיוס
לחות 12%
לחץ 1013 hPa
ראות: 16.1קילומטר
שמיים נקיים

METAR: KDMN 160753Z AUTO 29006KT 10SM CLR 24/M07 A2990 RMK AO2 SLP033 T02391067

זמן: 03:05 (09:05 UTC)

תחזית

הדו"ח נערך לפני 3 שעות ו 8דקות, בשעה 05:57 UTC
תחזית בתוקף מ 16 ב 06 UTC עד 17 ב 06 UTC
רוח 6קשר מכיוון מערב/דרום-מערב
ראות: 10קילומטר
שמיים נקיים
מ 16 ב 1800UTC
רוח 11קשר מכיוון מערב/דרום-מערב עם משבים עד 18קשר
ראות: 10קילומטר
שמיים נקיים
מ 17 ב 0200UTC
רוח 8קשר מכיוון מערב
ראות: 10קילומטר
שמיים נקיים

TAF: KDMN 160557Z 1606/1706 25006KT P6SM SKC FM161800 24011G18KT P6SM SKC FM170200 27008KT P6SM SKC

תצפיות ותחזיות מזג אוויר לגבי יותר מ- 4,000 שדות תעופה ברחבי העולם. דוחות METAR ו- TAF.

התחנות הזמינות מסומנות בנקודות צהובות ואדומות על גבי המפה.

העבר את העכבר לנקודה הצבעונית על מנת לראות את שם התחנה.

לאחר מכן, לחץ כדי לראות את תוכן ואת תחזיות מזג האוויר.

כדי לשנות את המפה: לחץ על הכפתורים הירוקים עם הפלוס השחור כדי להתקרב; על הכפתור הירוק עם המקף כדי להתרחק; או בחיצים הירוקים למפות סמוכות.


METAR-TAF: